createdAt,value
2018-06-05T00:01:46.971Z,13.70
2018-06-05T00:04:15.338Z,13.80
2018-06-05T00:06:43.690Z,13.80
2018-06-05T00:09:12.211Z,13.90
2018-06-05T00:11:40.517Z,13.90
2018-06-05T00:14:08.848Z,14.00
2018-06-05T00:16:37.232Z,13.90
2018-06-05T00:19:05.591Z,13.90
2018-06-05T00:21:33.952Z,13.90
2018-06-05T00:24:02.274Z,13.90
2018-06-05T00:26:30.638Z,13.90
2018-06-05T00:28:59.002Z,13.80
2018-06-05T00:31:27.438Z,13.80
2018-06-05T00:33:55.772Z,13.80
2018-06-05T00:36:24.085Z,13.90
2018-06-05T00:38:52.400Z,13.80
2018-06-05T00:41:20.770Z,13.80
2018-06-05T00:43:49.095Z,13.80
2018-06-05T00:46:17.456Z,13.60
2018-06-05T00:48:45.791Z,13.50
2018-06-05T00:51:25.513Z,13.40
2018-06-05T00:53:53.878Z,13.30
2018-06-05T00:58:50.339Z,12.80
2018-06-05T01:01:18.757Z,12.80
2018-06-05T01:03:47.175Z,12.90
2018-06-05T01:06:15.546Z,12.90
2018-06-05T01:08:43.894Z,12.90
2018-06-05T01:11:12.242Z,12.90
2018-06-05T01:13:40.613Z,12.90
2018-06-05T01:16:08.931Z,12.90
2018-06-05T01:18:37.298Z,13.00
2018-06-05T01:21:05.638Z,12.90
2018-06-05T01:23:33.910Z,13.00
2018-06-05T01:26:02.263Z,13.00
2018-06-05T01:28:30.671Z,13.00
2018-06-05T01:30:59.072Z,13.10
2018-06-05T01:33:27.419Z,13.00
2018-06-05T01:35:55.830Z,12.90
2018-06-05T01:38:24.148Z,12.90
2018-06-05T01:40:52.497Z,12.90
2018-06-05T01:43:20.842Z,12.90
2018-06-05T01:45:49.214Z,12.90
2018-06-05T01:48:17.545Z,13.00
2018-06-05T01:50:45.872Z,12.90
2018-06-05T01:53:14.225Z,12.90
2018-06-05T01:55:42.579Z,12.80
2018-06-05T01:58:10.922Z,12.80
2018-06-05T02:00:39.271Z,12.80
2018-06-05T02:03:07.657Z,12.80
2018-06-05T02:05:36.030Z,12.80
2018-06-05T02:08:04.377Z,12.80
2018-06-05T02:10:32.689Z,12.80
2018-06-05T02:13:01.035Z,13.00
2018-06-05T02:15:29.363Z,13.00
2018-06-05T02:17:57.729Z,12.90
2018-06-05T02:20:26.166Z,12.90
2018-06-05T02:22:54.521Z,12.60
2018-06-05T02:25:22.837Z,12.50
2018-06-05T02:27:51.300Z,12.50
2018-06-05T02:30:19.598Z,12.50
2018-06-05T02:32:47.922Z,12.40
2018-06-05T02:35:16.420Z,12.40
2018-06-05T02:37:44.794Z,12.30
2018-06-05T02:40:13.126Z,12.20
2018-06-05T02:42:41.417Z,12.10
2018-06-05T02:45:09.778Z,12.20
2018-06-05T02:47:38.100Z,12.30
2018-06-05T02:50:06.427Z,12.40
2018-06-05T02:52:34.730Z,12.30
2018-06-05T02:55:03.103Z,12.50
2018-06-05T02:57:31.453Z,12.60
2018-06-05T02:59:59.762Z,12.60
2018-06-05T03:02:28.041Z,12.60
2018-06-05T03:04:56.416Z,12.70
2018-06-05T03:07:24.807Z,12.80
2018-06-05T03:09:53.113Z,12.70
2018-06-05T03:12:21.436Z,12.60
2018-06-05T03:14:49.806Z,12.70
2018-06-05T03:17:18.132Z,12.70
2018-06-05T03:19:46.472Z,12.80
2018-06-05T03:22:14.796Z,12.80
2018-06-05T03:24:43.188Z,13.00
2018-06-05T03:27:11.483Z,13.20
2018-06-05T03:29:39.852Z,13.50
2018-06-05T03:32:08.152Z,13.70
2018-06-05T03:34:36.475Z,13.90
2018-06-05T03:37:04.824Z,14.00
2018-06-05T03:39:33.195Z,14.20
2018-06-05T03:42:01.517Z,14.20
2018-06-05T03:44:29.866Z,14.40
2018-06-05T03:46:58.237Z,14.40
2018-06-05T03:49:26.620Z,14.40
2018-06-05T03:51:54.915Z,14.50
2018-06-05T03:54:23.235Z,14.60
2018-06-05T03:56:51.521Z,14.70
2018-06-05T03:59:19.830Z,14.80
2018-06-05T04:01:48.189Z,14.80
2018-06-05T04:04:16.505Z,15.00
2018-06-05T04:06:44.865Z,15.10
2018-06-05T04:09:13.306Z,15.20
2018-06-05T04:11:41.673Z,15.30
2018-06-05T04:14:10.046Z,15.30
2018-06-05T04:16:38.422Z,15.40
2018-06-05T04:19:06.717Z,15.50
2018-06-05T04:21:35.038Z,15.60
2018-06-05T04:24:03.358Z,15.60
2018-06-05T04:26:31.830Z,15.60
2018-06-05T04:29:00.234Z,15.70
2018-06-05T04:31:28.589Z,15.70
2018-06-05T04:33:56.933Z,15.70
2018-06-05T04:36:25.337Z,15.80
2018-06-05T04:38:53.805Z,15.90
2018-06-05T04:41:22.207Z,15.80
2018-06-05T04:46:18.806Z,15.90
2018-06-05T04:48:47.202Z,15.90
2018-06-05T04:51:15.532Z,15.90
2018-06-05T04:53:43.938Z,15.90
2018-06-05T04:56:13.692Z,15.80
2018-06-05T04:58:42.124Z,15.80
2018-06-05T05:01:11.159Z,15.70
2018-06-05T05:03:39.505Z,15.70
2018-06-05T05:06:07.906Z,15.70
2018-06-05T05:08:36.228Z,15.70
2018-06-05T05:11:04.896Z,15.80
2018-06-05T05:13:33.282Z,15.80
2018-06-05T05:16:01.664Z,15.70
2018-06-05T05:18:30.108Z,15.60
2018-06-05T05:20:58.544Z,15.70
2018-06-05T05:23:26.869Z,15.70
2018-06-05T05:25:55.390Z,15.60
2018-06-05T05:28:23.723Z,15.70
2018-06-05T05:30:53.055Z,15.70
2018-06-05T05:33:21.489Z,15.80
2018-06-05T05:35:49.825Z,15.90
2018-06-05T05:38:18.229Z,15.90
2018-06-05T05:40:47.493Z,15.90
2018-06-05T05:43:15.984Z,15.90
2018-06-05T05:45:44.414Z,15.90
2018-06-05T05:48:12.745Z,15.80
2018-06-05T05:50:41.038Z,15.80
2018-06-05T05:53:09.396Z,15.80
2018-06-05T05:55:37.781Z,15.70
2018-06-05T05:58:06.112Z,15.80
2018-06-05T06:00:34.489Z,15.80
2018-06-05T06:03:02.829Z,15.90
2018-06-05T06:05:31.166Z,16.10
2018-06-05T06:07:59.526Z,16.10
2018-06-05T06:10:27.825Z,16.20
2018-06-05T06:12:56.332Z,16.30
2018-06-05T06:15:24.680Z,16.30
2018-06-05T06:17:52.955Z,16.30
2018-06-05T06:20:21.350Z,16.40
2018-06-05T06:22:49.649Z,16.40
2018-06-05T06:25:18.014Z,16.50
2018-06-05T06:27:46.404Z,16.50
2018-06-05T06:30:15.467Z,16.60
2018-06-05T06:32:43.782Z,16.60
2018-06-05T06:35:12.140Z,16.50
2018-06-05T06:37:40.509Z,16.50
2018-06-05T06:40:08.881Z,16.40
2018-06-05T06:42:37.335Z,16.10
2018-06-05T06:45:05.855Z,15.90
2018-06-05T06:47:34.353Z,16.00
2018-06-05T06:50:02.879Z,16.20
2018-06-05T06:54:59.558Z,16.50
2018-06-05T06:57:28.016Z,16.60
2018-06-05T06:59:56.348Z,16.60
2018-06-05T07:02:24.867Z,16.60
2018-06-05T07:04:53.190Z,16.60
2018-06-05T07:07:21.751Z,16.60
2018-06-05T07:09:50.159Z,16.60
2018-06-05T07:12:18.640Z,16.50
2018-06-05T07:14:47.157Z,16.60
2018-06-05T07:17:15.663Z,16.40
2018-06-05T07:19:44.269Z,16.20
2018-06-05T07:22:12.655Z,16.20
2018-06-05T07:24:41.249Z,16.40
2018-06-05T07:27:09.541Z,16.50
2018-06-05T07:29:37.881Z,16.50
2018-06-05T07:32:06.203Z,16.60
2018-06-05T07:34:34.895Z,16.70
2018-06-05T07:37:03.259Z,16.70
2018-06-05T07:39:31.623Z,16.80
2018-06-05T07:42:00.032Z,16.90
2018-06-05T07:44:28.360Z,17.00
2018-06-05T07:46:57.082Z,17.00
2018-06-05T07:49:25.456Z,17.00
2018-06-05T07:51:53.781Z,17.00
2018-06-05T07:54:22.131Z,16.90
2018-06-05T07:56:50.460Z,16.90
2018-06-05T07:59:18.791Z,17.10
2018-06-05T08:01:47.201Z,17.20
2018-06-05T08:04:15.499Z,17.30
2018-06-05T08:06:43.873Z,17.30
2018-06-05T08:09:12.251Z,17.60
2018-06-05T08:11:40.565Z,17.50
2018-06-05T08:14:08.902Z,17.70
2018-06-05T08:16:37.322Z,17.70
2018-06-05T08:19:05.654Z,17.70
2018-06-05T08:21:33.978Z,17.80
2018-06-05T08:24:02.289Z,17.80
2018-06-05T08:26:54.046Z,17.60
2018-06-05T08:29:22.519Z,17.50
2018-06-05T08:31:50.945Z,17.60
2018-06-05T08:34:19.246Z,17.80
2018-06-05T08:36:47.604Z,18.00
2018-06-05T08:39:15.925Z,18.20
2018-06-05T08:41:44.482Z,18.20
2018-06-05T08:44:12.860Z,18.50
2018-06-05T08:46:41.283Z,18.40
2018-06-05T08:49:09.633Z,18.30
2018-06-05T08:51:38.215Z,18.00
2018-06-05T08:54:06.903Z,17.90
2018-06-05T08:56:35.619Z,18.20
2018-06-05T08:59:04.042Z,18.30
2018-06-05T09:01:32.407Z,18.40
2018-06-05T09:04:01.021Z,18.60
2018-06-05T09:06:29.398Z,18.40
2018-06-05T09:08:57.880Z,18.30
2018-06-05T09:11:26.193Z,18.40
2018-06-05T09:13:54.794Z,18.50
2018-06-05T09:16:23.240Z,17.80
2018-06-05T09:18:51.612Z,18.00
2018-06-05T09:21:20.353Z,17.90
2018-06-05T09:23:48.991Z,18.10
2018-06-05T09:26:17.347Z,18.20
2018-06-05T09:28:45.838Z,18.00
2018-06-05T09:31:14.244Z,18.30
2018-06-05T09:33:42.586Z,18.40
2018-06-05T09:36:10.877Z,18.50
2018-06-05T09:38:39.257Z,18.60
2018-06-05T09:41:07.637Z,18.60
2018-06-05T09:43:35.965Z,18.90
2018-06-05T09:46:04.777Z,19.30
2018-06-05T09:48:33.086Z,19.40
2018-06-05T09:51:01.538Z,19.40
2018-06-05T09:53:30.079Z,19.50
2018-06-05T09:55:58.514Z,19.60
2018-06-05T09:58:26.940Z,19.90
2018-06-05T10:00:55.162Z,20.00
2018-06-05T10:03:23.544Z,19.90
2018-06-05T10:05:51.907Z,19.70
2018-06-05T10:08:20.304Z,19.80
2018-06-05T10:10:48.981Z,19.50
2018-06-05T10:13:17.317Z,19.30
2018-06-05T10:15:45.742Z,19.30
2018-06-05T10:18:14.311Z,19.50
2018-06-05T10:20:42.671Z,19.80
2018-06-05T10:23:11.101Z,19.90
2018-06-05T10:25:39.662Z,20.20
2018-06-05T10:28:08.184Z,20.40
2018-06-05T10:30:36.548Z,20.60
2018-06-05T10:33:04.895Z,21.10
2018-06-05T10:35:33.199Z,21.60
2018-06-05T10:38:01.510Z,21.90
2018-06-05T10:40:29.816Z,21.70
2018-06-05T10:42:58.306Z,21.70
2018-06-05T10:45:27.019Z,21.90
2018-06-05T10:47:55.346Z,22.00
2018-06-05T10:50:23.692Z,21.50
2018-06-05T10:52:52.098Z,21.70
2018-06-05T10:55:20.469Z,21.80
2018-06-05T10:57:48.825Z,21.90
2018-06-05T11:00:17.142Z,21.50
2018-06-05T11:02:45.497Z,21.50
2018-06-05T11:05:13.824Z,21.10
2018-06-05T11:07:42.137Z,21.10
2018-06-05T11:10:10.475Z,20.60
2018-06-05T11:12:38.804Z,20.50
2018-06-05T11:15:07.203Z,20.70
2018-06-05T11:17:35.518Z,20.70
2018-06-05T11:20:03.901Z,20.80
2018-06-05T11:22:32.217Z,21.10
2018-06-05T11:25:00.531Z,20.80
2018-06-05T11:27:28.866Z,20.60
2018-06-05T11:29:57.195Z,20.80
2018-06-05T11:32:25.553Z,21.20
2018-06-05T11:34:53.902Z,21.10
2018-06-05T11:37:22.241Z,21.20
2018-06-05T11:39:50.564Z,20.60
2018-06-05T11:42:18.890Z,21.10
2018-06-05T11:44:47.217Z,21.40
2018-06-05T11:47:15.531Z,21.40
2018-06-05T11:49:43.849Z,21.30
2018-06-05T11:52:12.169Z,21.20
2018-06-05T11:54:40.500Z,21.20
2018-06-05T11:57:08.805Z,21.40
2018-06-05T11:59:37.225Z,21.10
2018-06-05T12:02:05.616Z,21.20
2018-06-05T12:04:33.934Z,21.30
2018-06-05T12:07:02.280Z,21.00
2018-06-05T12:09:30.633Z,20.40
2018-06-05T12:11:58.898Z,20.20
2018-06-05T12:14:27.227Z,20.50
2018-06-05T12:16:55.515Z,21.00
2018-06-05T12:19:23.801Z,21.10
2018-06-05T12:21:52.098Z,21.40
2018-06-05T12:24:20.525Z,21.70
2018-06-05T12:26:48.810Z,21.90
2018-06-05T12:29:17.160Z,21.80
2018-06-05T12:31:45.480Z,21.50
2018-06-05T12:34:13.751Z,21.20
2018-06-05T12:36:42.046Z,21.10
2018-06-05T12:39:10.387Z,21.10
2018-06-05T12:41:38.719Z,21.00
2018-06-05T12:44:07.517Z,21.10
2018-06-05T12:46:35.928Z,20.90
2018-06-05T12:49:04.238Z,20.90
2018-06-05T12:51:32.576Z,20.80
2018-06-05T12:54:00.913Z,20.90
2018-06-05T12:56:29.249Z,21.10
2018-06-05T12:58:57.615Z,21.20
2018-06-05T13:01:25.946Z,21.00
2018-06-05T13:03:54.271Z,20.80
2018-06-05T13:06:22.632Z,21.00
2018-06-05T13:08:50.990Z,21.00
2018-06-05T13:11:19.334Z,21.00
2018-06-05T13:13:47.633Z,20.80
2018-06-05T13:16:15.941Z,20.80
2018-06-05T13:18:44.260Z,20.60
2018-06-05T13:21:12.591Z,20.40
2018-06-05T13:23:41.029Z,20.20
2018-06-05T13:26:09.388Z,20.20
2018-06-05T13:28:37.719Z,20.10
2018-06-05T13:31:06.133Z,20.00
2018-06-05T13:33:34.429Z,19.90
2018-06-05T13:36:02.762Z,20.00
2018-06-05T13:38:31.151Z,20.00
2018-06-05T13:40:59.515Z,19.90
2018-06-05T13:43:27.880Z,19.90
2018-06-05T13:45:56.255Z,20.10
2018-06-05T13:48:25.003Z,20.10
2018-06-05T13:53:21.873Z,20.00
2018-06-05T13:55:50.244Z,20.00
2018-06-05T13:58:18.617Z,19.90
2018-06-05T14:00:46.991Z,20.00
2018-06-05T14:03:15.322Z,20.10
2018-06-05T14:05:43.894Z,20.20
2018-06-05T14:08:13.326Z,20.40
2018-06-05T14:10:42.027Z,20.30
2018-06-05T14:13:10.374Z,20.20
2018-06-05T14:15:38.643Z,20.20
2018-06-05T14:18:07.285Z,20.20
2018-06-05T14:20:35.695Z,20.30
2018-06-05T14:23:04.355Z,20.30
2018-06-05T14:25:32.757Z,20.30
2018-06-05T14:28:01.127Z,20.20
2018-06-05T14:30:29.454Z,20.20
2018-06-05T14:32:57.762Z,20.20
2018-06-05T14:35:26.266Z,20.10
2018-06-05T14:37:54.582Z,20.10
2018-06-05T14:40:22.920Z,20.10
2018-06-05T14:42:51.235Z,20.20
2018-06-05T14:45:19.584Z,20.30
2018-06-05T14:47:47.937Z,20.30
2018-06-05T14:50:16.276Z,20.20
2018-06-05T14:52:44.586Z,20.10
2018-06-05T14:55:12.930Z,20.10
2018-06-05T14:57:41.307Z,20.00
2018-06-05T15:00:09.630Z,20.00
2018-06-05T15:02:37.956Z,20.00
2018-06-05T15:05:06.325Z,20.00
2018-06-05T15:07:34.646Z,20.00
2018-06-05T15:10:02.972Z,20.00
2018-06-05T15:12:31.311Z,19.90
2018-06-05T15:14:59.628Z,19.90
2018-06-05T15:17:27.934Z,19.90
2018-06-05T15:19:56.281Z,19.90
2018-06-05T15:22:24.925Z,19.80
2018-06-05T15:24:57.105Z,19.80
2018-06-05T15:27:25.420Z,19.80
2018-06-05T15:29:53.732Z,19.90
2018-06-05T15:32:22.075Z,19.90
2018-06-05T15:34:50.377Z,19.90
2018-06-05T15:37:18.691Z,20.00
2018-06-05T15:39:46.985Z,20.10
2018-06-05T15:42:15.323Z,20.00
2018-06-05T15:44:43.895Z,20.00
2018-06-05T15:47:12.244Z,19.90
2018-06-05T15:49:40.860Z,20.00
2018-06-05T15:52:09.218Z,19.90
2018-06-05T15:57:05.744Z,19.80
2018-06-05T15:59:34.099Z,19.60
2018-06-05T16:03:05.583Z,19.70
2018-06-05T16:05:33.966Z,19.60
2018-06-05T16:08:02.356Z,19.60
2018-06-05T16:10:30.713Z,19.60
2018-06-05T16:12:59.115Z,19.60
2018-06-05T16:15:27.474Z,19.60
2018-06-05T16:17:55.794Z,19.60
2018-06-05T16:20:24.190Z,19.60
2018-06-05T16:22:52.535Z,19.60
2018-06-05T16:25:20.855Z,19.60
2018-06-05T16:27:49.234Z,19.60
2018-06-05T16:30:17.555Z,19.60
2018-06-05T16:32:45.977Z,19.60
2018-06-05T16:35:14.348Z,19.50
2018-06-05T16:37:42.817Z,19.50
2018-06-05T16:40:11.158Z,19.50
2018-06-05T16:42:39.557Z,19.50
2018-06-05T16:45:07.960Z,19.60
2018-06-05T16:47:36.296Z,19.50
2018-06-05T16:50:04.662Z,19.50
2018-06-05T16:52:33.001Z,19.40
2018-06-05T16:55:01.373Z,19.40
2018-06-05T16:57:29.747Z,19.30
2018-06-05T16:59:58.226Z,19.30
2018-06-05T17:02:26.595Z,19.20
2018-06-05T17:04:54.920Z,19.20
2018-06-05T17:07:23.350Z,19.20
2018-06-05T17:09:51.690Z,19.10
2018-06-05T17:12:20.040Z,19.10
2018-06-05T17:14:48.392Z,19.10
2018-06-05T17:17:16.787Z,19.00
2018-06-05T17:19:45.217Z,19.00
2018-06-05T17:22:13.564Z,18.90
2018-06-05T17:24:41.909Z,18.90
2018-06-05T17:27:10.264Z,18.90
2018-06-05T17:29:38.587Z,18.90
2018-06-05T17:32:06.908Z,18.90
2018-06-05T17:37:03.253Z,18.70
2018-06-05T17:39:31.605Z,18.60
2018-06-05T17:41:59.968Z,18.60
2018-06-05T17:44:28.409Z,18.70
2018-06-05T17:46:56.782Z,18.70
2018-06-05T17:49:25.111Z,18.60
2018-06-05T17:51:53.458Z,18.50
2018-06-05T17:54:21.829Z,18.40
2018-06-05T17:56:50.361Z,18.50
2018-06-05T17:59:18.726Z,18.40
2018-06-05T18:01:47.165Z,18.40
2018-06-05T18:04:15.579Z,18.30
2018-06-05T18:06:43.970Z,18.30
2018-06-05T18:09:12.375Z,18.20
2018-06-05T18:11:40.825Z,18.20
2018-06-05T18:14:09.174Z,18.10
2018-06-05T18:16:37.546Z,18.10
2018-06-05T18:19:06.005Z,18.00
2018-06-05T18:21:34.434Z,17.90
2018-06-05T18:24:02.805Z,17.90
2018-06-05T18:26:31.197Z,17.90
2018-06-05T18:28:59.579Z,17.80
2018-06-05T18:31:27.933Z,17.70
2018-06-05T18:33:56.351Z,17.70
2018-06-05T18:36:24.629Z,17.60
2018-06-05T18:38:53.020Z,17.60
2018-06-05T18:41:21.358Z,17.50
2018-06-05T18:43:49.891Z,17.50
2018-06-05T18:46:18.597Z,17.40
2018-06-05T18:48:46.981Z,17.30
2018-06-05T18:51:15.309Z,17.20
2018-06-05T18:53:43.695Z,17.20
2018-06-05T18:56:12.505Z,17.10
2018-06-05T18:58:40.981Z,17.00
2018-06-05T19:01:09.278Z,17.00
2018-06-05T19:03:37.706Z,16.90
2018-06-05T19:06:06.088Z,16.90
2018-06-05T19:08:34.471Z,16.90
2018-06-05T19:11:02.797Z,16.80
2018-06-05T19:13:31.129Z,16.70
2018-06-05T19:15:59.489Z,16.70
2018-06-05T19:18:27.901Z,16.60
2018-06-05T19:20:56.296Z,16.60
2018-06-05T19:23:24.778Z,16.50
2018-06-05T19:25:53.173Z,16.50
2018-06-05T19:28:21.599Z,16.40
2018-06-05T19:30:49.961Z,16.30
2018-06-05T19:33:18.497Z,16.30
2018-06-05T19:35:47.245Z,16.20
2018-06-05T19:38:15.761Z,16.20
2018-06-05T19:40:44.237Z,16.10
2018-06-05T19:43:12.577Z,16.10
2018-06-05T19:45:41.004Z,16.00
2018-06-05T19:48:09.347Z,15.90
2018-06-05T19:50:37.701Z,15.90
2018-06-05T19:53:06.051Z,15.80
2018-06-05T19:55:34.446Z,15.80
2018-06-05T19:58:02.843Z,15.70
2018-06-05T20:00:31.157Z,15.70
2018-06-05T20:02:59.618Z,15.60
2018-06-05T20:05:30.991Z,15.60
2018-06-05T20:10:27.391Z,15.50
2018-06-05T20:12:55.753Z,15.40
2018-06-05T20:15:24.092Z,15.40
2018-06-05T20:17:52.430Z,15.40
2018-06-05T20:20:20.956Z,15.40
2018-06-05T20:22:49.422Z,15.40
2018-06-05T20:25:18.296Z,15.30
2018-06-05T20:27:46.637Z,15.30
2018-06-05T20:30:15.033Z,15.20
2018-06-05T20:32:43.359Z,15.20
2018-06-05T20:35:11.780Z,15.10
2018-06-05T20:37:40.131Z,15.00
2018-06-05T20:40:08.511Z,15.00
2018-06-05T20:42:36.973Z,14.90
2018-06-05T20:45:05.433Z,14.90
2018-06-05T20:47:33.733Z,14.90
2018-06-05T20:50:02.143Z,14.80
2018-06-05T20:52:30.531Z,14.80
2018-06-05T20:54:58.841Z,14.80
2018-06-05T20:57:27.194Z,14.60
2018-06-05T20:59:55.599Z,14.40
2018-06-05T21:02:23.965Z,14.20
2018-06-05T21:04:52.335Z,14.20
2018-06-05T21:07:20.683Z,14.10
2018-06-05T21:09:49.099Z,14.00
2018-06-05T21:12:17.550Z,14.00
2018-06-05T21:14:46.034Z,14.10
2018-06-05T21:17:14.446Z,14.10
2018-06-05T21:19:42.747Z,14.00
2018-06-05T21:22:11.081Z,13.90
2018-06-05T21:24:39.434Z,13.80
2018-06-05T21:27:07.770Z,13.90
2018-06-05T21:29:36.061Z,13.80
2018-06-05T21:32:04.420Z,13.70
2018-06-05T21:34:32.753Z,13.70
2018-06-05T21:37:01.340Z,13.70
2018-06-05T21:39:29.731Z,13.60
2018-06-05T21:41:58.126Z,13.50
2018-06-05T21:44:26.447Z,13.50
2018-06-05T21:46:54.834Z,13.40
2018-06-05T21:49:23.154Z,13.40
2018-06-05T21:51:51.472Z,13.50
2018-06-05T21:54:20.033Z,13.50
2018-06-05T21:56:48.492Z,13.50
2018-06-05T21:59:16.885Z,13.40
2018-06-05T22:01:45.222Z,13.30
2018-06-05T22:04:13.609Z,13.20
2018-06-05T22:06:42.224Z,13.20
2018-06-05T22:09:10.690Z,13.30
2018-06-05T22:11:39.402Z,13.30
2018-06-05T22:14:07.755Z,13.20
2018-06-05T22:16:36.177Z,13.20
2018-06-05T22:19:04.841Z,13.20
2018-06-05T22:21:33.281Z,13.10
2018-06-05T22:24:01.591Z,13.10
2018-06-05T22:26:29.944Z,13.10
2018-06-05T22:28:58.267Z,13.10
2018-06-05T22:31:26.763Z,12.90
2018-06-05T22:33:55.270Z,12.90
2018-06-05T22:36:23.816Z,12.90
2018-06-05T22:38:52.189Z,12.90
2018-06-05T22:41:20.567Z,12.90
2018-06-05T22:43:48.938Z,12.80
2018-06-05T22:46:17.288Z,12.60
2018-06-05T22:48:45.618Z,12.60
2018-06-05T22:51:14.063Z,12.60
2018-06-05T22:53:42.378Z,12.60
2018-06-05T22:56:10.788Z,12.60
2018-06-05T22:58:39.173Z,12.60
2018-06-05T23:01:07.443Z,12.60
2018-06-05T23:03:35.832Z,12.60
2018-06-05T23:06:04.198Z,12.60
2018-06-05T23:08:32.582Z,12.60
2018-06-05T23:13:29.021Z,12.50
2018-06-05T23:15:57.373Z,12.40
2018-06-05T23:18:25.738Z,12.30
2018-06-05T23:20:54.048Z,12.30
2018-06-05T23:23:22.371Z,12.40
2018-06-05T23:25:50.785Z,12.40
2018-06-05T23:28:19.133Z,12.40
2018-06-05T23:30:47.562Z,12.20
2018-06-05T23:33:15.918Z,12.10
2018-06-05T23:35:44.303Z,11.90
2018-06-05T23:38:12.704Z,11.80
2018-06-05T23:40:41.026Z,11.70
2018-06-05T23:43:09.417Z,11.60
2018-06-05T23:45:37.771Z,11.50
2018-06-05T23:48:06.477Z,11.50
2018-06-05T23:50:34.830Z,11.40
2018-06-05T23:53:03.220Z,11.40
2018-06-05T23:55:31.682Z,11.40
2018-06-05T23:58:00.041Z,11.30
